Utiel, Spain
Current Conditions -  °F | °C
As of 10:00 PM on Friday 19 Dec 2014 (Local Time) from LEBT Reporting Station
Clear Clear  
Wind Chill: 46°   Ceiling: Unl
Heat Index: 46°   Visibility: 2.5mi
Dew Point: 46°   Wind: 3mph
Humidity: 100%   Direction: 330°NNW
Pressure: 30.39"   Gusts: NA
Location:  39.57°N, 1.2°W
Report Text: LEBT 192100Z AUTO 33003KT 300V360 4000 // NSC 08/08 Q1029
Loading
Personal Weather Stations






























Interactive Weather Map New forecast layout! Learn more

10-Day Weather Forecast

Advertisements
Track Severe Weather on mobile